Time;durP1;ratioP1;P1;durP2;ratioP2;P2;SDS_P1;SDS_P2;PMS_P1;PMS_P2;Temp;Humidity;BMP_temperature;BMP_pressure;BME280_temperature;BME280_humidity;BME280_pressure;Samples;Min_cycle;Max_cycle;Signal;HPM_P1;HPM_P2
2021/12/27 00:02:53;;;;;;;14.57;2.23;;;;;;;16.77;100.00;101479.69;6157499;23;20409;-93
2021/12/27 00:12:40;;;;;;;18.60;2.40;;;;;;;16.77;100.00;101479.69;6157401;23;20357;-93
2021/12/27 00:15:08;;;;;;;18.10;2.30;;;;;;;16.74;100.00;101480.97;6107100;23;20409;-92
2021/12/27 00:18:06;;;;;;;15.07;2.40;;;;;;;16.78;100.00;101489.69;6107614;23;20416;-92
2021/12/27 00:21:09;;;;;;;7.77;1.90;;;;;;;16.78;100.00;101495.19;6155745;23;20405;-93
2021/12/27 00:23:36;;;;;;;22.20;3.43;;;;;;;16.79;100.00;101488.63;6130553;23;21005;-93
2021/12/27 00:26:05;;;;;;;9.17;2.60;;;;;;;16.78;100.00;101486.91;6083858;23;20440;-93
2021/12/27 00:28:41;;;;;;;11.60;2.63;;;;;;;16.81;100.00;101497.53;6083849;23;20410;-93
2021/12/27 00:31:18;;;;;;;25.30;3.17;;;;;;;16.83;100.00;101493.50;6131510;23;20416;-92
2021/12/27 00:34:14;;;;;;;14.10;3.17;;;;;;;16.84;100.00;101497.09;6131758;23;20408;-92
2021/12/27 00:36:45;;;;;;;12.23;2.80;;;;;;;16.80;100.00;101484.78;6131414;23;20416;-92
2021/12/27 00:39:32;;;;;;;13.00;2.53;;;;;;;16.82;100.00;101489.03;6083366;23;20405;-92
2021/12/27 00:42:12;;;;;;;13.97;3.50;;;;;;;16.75;100.00;101481.81;6107656;23;20409;-93
2021/12/27 00:45:06;;;;;;;14.10;1.83;;;;;;;16.87;100.00;101488.41;6107367;23;20448;-93
2021/12/27 00:47:59;;;;;;;19.97;3.20;;;;;;;16.88;100.00;101488.19;6131237;23;20409;-93
2021/12/27 00:50:30;;;;;;;17.53;2.73;;;;;;;16.89;100.00;101472.47;6131514;23;20405;-92
2021/12/27 00:53:25;;;;;;;7.33;1.63;;;;;;;16.89;100.00;101472.47;6131719;23;20436;-93
2021/12/27 00:56:00;;;;;;;14.40;1.90;;;;;;;16.84;100.00;101466.72;6131092;23;20413;-93
2021/12/27 00:58:51;;;;;;;20.43;2.60;;;;;;;16.93;100.00;101484.78;6083709;23;20409;-94
2021/12/27 01:01:22;;;;;;;11.30;2.20;;;;;;;16.94;100.00;101486.44;6131349;23;20468;-92
2021/12/27 01:03:51;;;;;;;12.00;2.77;;;;;;;16.87;100.00;101469.06;6156284;23;20405;-91
2021/12/27 01:06:19;;;;;;;19.03;3.27;;;;;;;16.92;100.00;101483.06;6082464;23;20520;-90
2021/12/27 01:08:47;;;;;;;19.17;2.93;;;;;;;16.93;100.00;101487.53;6106572;23;20412;-88
2021/12/27 01:13:59;;;;;;;16.93;2.00;;;;;;;17.00;100.00;101490.25;6107252;23;20412;-87
2021/12/27 01:16:29;;;;;;;24.27;3.00;;;;;;;17.04;100.00;101497.88;6155260;23;20398;-88
2021/12/27 01:18:57;;;;;;;10.47;2.20;;;;;;;17.04;100.00;101497.88;6106246;23;20896;-88
2021/12/27 01:21:25;;;;;;;8.63;2.20;;;;;;;17.06;100.00;101495.75;6105839;23;20423;-87
2021/12/27 01:23:53;;;;;;;10.40;2.27;;;;;;;17.05;100.00;101493.22;6080825;23;20425;-88
2021/12/27 01:26:27;;;;;;;13.27;1.77;;;;;;;17.06;100.00;101501.28;6104889;23;20469;-88
2021/12/27 01:29:07;;;;;;;14.57;1.70;;;;;;;17.07;100.00;101499.38;6107819;23;20367;-90
2021/12/27 01:31:35;;;;;;;12.27;2.03;;;;;;;17.07;100.00;101502.13;6130443;23;20385;-90
2021/12/27 01:34:07;;;;;;;10.80;1.90;;;;;;;17.11;100.00;101508.94;6083516;23;20732;-90
2021/12/27 01:36:35;;;;;;;14.00;2.23;;;;;;;17.12;100.00;101508.72;6083182;23;20382;-90
2021/12/27 01:39:06;;;;;;;15.60;2.10;;;;;;;17.15;100.00;101507.41;6108406;23;20370;-91
2021/12/27 01:41:34;;;;;;;9.90;2.00;;;;;;;17.12;100.00;101505.94;6106351;23;20460;-90
2021/12/27 01:44:13;;;;;;;13.53;2.10;;;;;;;17.11;100.00;101498.72;6083186;23;20429;-90
2021/12/27 01:46:48;;;;;;;13.70;2.00;;;;;;;17.12;100.00;101497.66;6083537;23;20483;-90
2021/12/27 01:49:23;;;;;;;19.73;2.20;;;;;;;17.12;100.00;101508.72;6105915;23;20780;-90
2021/12/27 01:51:53;;;;;;;11.13;2.00;;;;;;;17.12;100.00;101500.44;6084071;23;20439;-90
2021/12/27 01:54:20;;;;;;;8.60;2.00;;;;;;;17.11;100.00;101506.16;6083108;23;20401;-90
2021/12/27 01:56:51;;;;;;;13.70;2.50;;;;;;;17.11;100.00;101497.88;6106246;23;20751;-90
2021/12/27 01:59:29;;;;;;;12.90;1.67;;;;;;;17.07;100.00;101493.84;6108137;23;20392;-90
2021/12/27 02:01:57;;;;;;;12.03;1.83;;;;;;;17.05;100.00;101499.59;6106984;23;20473;-90
2021/12/27 02:04:26;;;;;;;12.13;1.83;;;;;;;17.07;100.00;101504.91;6082390;23;20456;-90
2021/12/27 02:06:54;;;;;;;5.43;0.93;;;;;;;17.09;100.00;101506.38;6106084;23;20441;-91
2021/12/27 02:09:30;;;;;;;12.63;1.40;;;;;;;17.08;100.00;101504.69;6082651;23;20927;-90
2021/12/27 02:11:59;;;;;;;9.50;1.27;;;;;;;17.05;100.00;101505.13;6109948;23;20436;-90
2021/12/27 02:14:29;;;;;;;6.90;1.50;;;;;;;17.07;100.00;101502.97;6083610;23;20798;-90
2021/12/27 02:16:59;;;;;;;3.83;1.10;;;;;;;17.02;100.00;101502.78;6083721;23;20425;-90
2021/12/27 02:19:28;;;;;;;6.70;1.10;;;;;;;17.05;100.00;101516.16;6084464;23;20805;-91
2021/12/27 02:21:59;;;;;;;9.67;1.37;;;;;;;17.01;100.00;101506.59;6084734;23;20951;-90
2021/12/27 02:24:27;;;;;;;11.30;2.33;;;;;;;17.04;100.00;101513.63;6084275;23;20484;-90
2021/12/27 02:26:55;;;;;;;13.43;2.27;;;;;;;17.04;100.00;101513.63;6107814;23;20463;-91
2021/12/27 02:29:24;;;;;;;8.13;1.20;;;;;;;17.05;100.00;101524.44;6084345;23;20408;-90
2021/12/27 02:31:55;;;;;;;5.83;1.37;;;;;;;17.02;100.00;101513.84;6107648;23;20413;-90
2021/12/27 02:34:23;;;;;;;6.47;1.87;;;;;;;17.05;100.00;101527.22;6085284;23;20375;-90
2021/12/27 02:36:53;;;;;;;16.70;1.87;;;;;;;17.03;100.00;101529.34;6084118;23;20405;-91
2021/12/27 02:39:26;;;;;;;7.37;1.60;;;;;;;17.06;100.00;101520.63;6084137;23;20896;-91
2021/12/27 02:41:54;;;;;;;15.57;2.73;;;;;;;17.05;100.00;101526.34;6131988;23;20409;-90
2021/12/27 02:44:22;;;;;;;13.40;1.70;;;;;;;17.04;100.00;101528.28;6108987;23;20378;-90
2021/12/27 02:46:50;;;;;;;11.83;1.53;;;;;;;17.06;100.00;101523.38;6107698;23;20437;-91
2021/12/27 02:49:21;;;;;;;14.27;2.07;;;;;;;17.08;100.00;101535.06;6084527;23;20469;-91
2021/12/27 02:51:49;;;;;;;7.43;1.30;;;;;;;17.07;100.00;101519.56;6131578;23;20464;-90
2021/12/27 02:54:18;;;;;;;15.53;2.30;;;;;;;17.05;100.00;101529.97;6084865;23;20386;-90
2021/12/27 02:56:48;;;;;;;26.90;3.00;;;;;;;17.03;100.00;101525.72;6083472;23;20397;-90
2021/12/27 02:59:16;;;;;;;15.10;2.67;;;;;;;17.05;100.00;101529.13;6108123;23;20708;-90
2021/12/27 03:01:46;;;;;;;18.77;2.17;;;;;;;17.02;100.00;101527.63;6131854;23;20436;-90
2021/12/27 03:04:14;;;;;;;17.73;2.53;;;;;;;17.00;100.00;101517.88;6156170;23;21117;-90
2021/12/27 03:06:42;;;;;;;11.87;1.97;;;;;;;16.98;100.00;101522.75;6083878;23;20479;-90
2021/12/27 03:09:14;;;;;;;9.80;1.50;;;;;;;17.00;100.00;101524.25;6107928;23;20406;-90
2021/12/27 03:11:44;;;;;;;11.40;2.27;;;;;;;16.99;100.00;101533.59;6131733;23;20923;-90
2021/12/27 03:14:13;;;;;;;15.23;2.60;;;;;;;16.89;100.00;101516.63;6084560;23;20713;-89
2021/12/27 03:16:42;;;;;;;7.20;1.60;;;;;;;16.90;100.00;101521.09;6108249;23;20397;-90
2021/12/27 03:19:12;;;;;;;12.53;2.07;;;;;;;16.90;100.00;101526.63;6083798;23;20830;-90
2021/12/27 03:21:40;;;;;;;11.83;1.40;;;;;;;16.91;100.00;101520.03;6084478;23;20412;-90
2021/12/27 03:24:07;;;;;;;18.90;2.33;;;;;;;16.90;100.00;101512.81;6082298;23;20429;-91
2021/12/27 03:26:35;;;;;;;11.23;1.77;;;;;;;16.96;100.00;101522.97;6083551;23;20451;-91
2021/12/27 03:29:04;;;;;;;13.03;1.77;;;;;;;16.95;100.00;101521.28;6107488;23;20413;-91
2021/12/27 03:31:32;;;;;;;10.83;1.93;;;;;;;16.95;100.00;101515.75;6083706;23;20417;-90
2021/12/27 03:34:00;;;;;;;9.07;1.60;;;;;;;16.85;100.00;101499.66;6084595;23;20429;-91
2021/12/27 03:36:37;;;;;;;13.80;2.70;;;;;;;16.88;100.00;101509.41;6107481;23;20493;-90
2021/12/27 03:39:08;;;;;;;13.17;2.47;;;;;;;16.93;100.00;101515.16;6110069;23;20962;-89
2021/12/27 03:41:37;;;;;;;15.33;2.27;;;;;;;16.93;100.00;101513.22;6131775;23;20409;-90
2021/12/27 03:44:07;;;;;;;16.57;2.30;;;;;;;16.94;100.00;101511.28;6084710;23;20484;-90
2021/12/27 03:46:36;;;;;;;8.50;1.30;;;;;;;16.89;100.00;101511.13;6107121;23;20994;-91
2021/12/27 03:49:11;;;;;;;15.00;2.33;;;;;;;16.97;100.00;101524.66;6107529;23;20409;-90
2021/12/27 03:51:43;;;;;;;13.73;1.90;;;;;;;16.94;100.00;101514.06;6106937;23;20401;-89
2021/12/27 03:54:13;;;;;;;18.63;2.03;;;;;;;16.99;100.00;101525.31;6108756;23;20398;-90
2021/12/27 03:56:45;;;;;;;22.43;3.63;;;;;;;16.94;100.00;101514.06;6107772;23;20484;-88
2021/12/27 04:01:59;;;;;;;18.63;2.20;;;;;;;16.97;100.00;101515.53;6114089;23;20390;-88
2021/12/27 04:04:28;;;;;;;8.20;1.40;;;;;;;16.98;100.00;101515.31;6107196;23;20455;-88
2021/12/27 04:06:59;;;;;;;12.57;2.50;;;;;;;16.90;100.00;101501.78;6107105;23;20441;-88
2021/12/27 04:09:27;;;;;;;11.97;1.90;;;;;;;16.96;100.00;101511.94;6108201;23;20729;-88
2021/12/27 04:11:56;;;;;;;12.30;1.67;;;;;;;16.98;100.00;101504.28;6105504;23;20460;-88
2021/12/27 04:14:26;;;;;;;9.13;1.93;;;;;;;17.00;100.00;101507.66;6106731;23;20424;-88
2021/12/27 04:16:54;;;;;;;20.63;2.37;;;;;;;17.00;100.00;101510.44;6105920;23;20405;-88
2021/12/27 04:19:22;;;;;;;14.30;2.67;;;;;;;16.98;100.00;101509.81;6082594;23;20386;-88
2021/12/27 04:21:50;;;;;;;9.43;1.87;;;;;;;17.04;100.00;101503.41;6106467;23;20402;-88
2021/12/27 04:24:18;;;;;;;12.33;2.50;;;;;;;17.03;100.00;101504.47;6121689;23;20488;-88
2021/12/27 04:26:46;;;;;;;7.53;2.00;;;;;;;17.01;100.00;101503.00;6105407;23;20447;-88
2021/12/27 04:29:14;;;;;;;16.47;2.17;;;;;;;17.04;100.00;101514.47;6082330;23;20717;-88
2021/12/27 04:31:41;;;;;;;10.90;2.93;;;;;;;17.03;100.00;101510.00;6130420;23;20448;-88
2021/12/27 04:34:11;;;;;;;10.17;2.40;;;;;;;17.09;100.00;101517.44;6154965;23;20421;-87
2021/12/27 04:36:39;;;;;;;20.40;2.30;;;;;;;17.08;100.00;101514.88;6154610;23;20397;-87
2021/12/27 04:39:09;;;;;;;19.60;2.50;;;;;;;17.03;100.00;101507.25;6083111;23;20408;-88
2021/12/27 04:41:37;;;;;;;11.33;2.10;;;;;;;17.07;100.00;101507.66;6105542;23;20496;-87
2021/12/27 04:44:05;;;;;;;9.73;2.07;;;;;;;17.07;100.00;101516.78;6106393;23;20402;-87
2021/12/27 04:46:33;;;;;;;11.70;2.10;;;;;;;17.11;100.00;101515.31;6105997;23;20441;-88
2021/12/27 04:49:01;;;;;;;15.43;2.20;;;;;;;17.06;100.00;101509.56;6105959;23;20402;-87
2021/12/27 04:51:30;;;;;;;16.80;2.10;;;;;;;17.07;100.00;101502.97;6106298;23;20445;-87
2021/12/27 04:53:58;;;;;;;14.27;2.63;;;;;;;17.04;100.00;101499.81;6106045;23;20791;-88
2021/12/27 04:56:26;;;;;;;20.80;1.70;;;;;;;17.03;100.00;101501.72;6083107;23;20472;-87
2021/12/27 04:58:53;;;;;;;9.20;2.37;;;;;;;17.07;100.00;101504.91;6130231;23;20939;-87
2021/12/27 05:01:22;;;;;;;21.63;2.30;;;;;;;17.07;100.00;101518.72;6082608;23;20763;-87
2021/12/27 05:03:51;;;;;;;21.63;2.90;;;;;;;17.03;100.00;101518.28;6106934;23;20873;-88
2021/12/27 05:06:19;;;;;;;11.60;2.13;;;;;;;17.05;100.00;101512.56;6130467;23;20433;-88
2021/12/27 05:08:48;;;;;;;7.33;1.40;;;;;;;17.05;100.00;101518.91;6106319;23;20762;-88
2021/12/27 05:11:17;;;;;;;10.17;1.70;;;;;;;17.06;100.00;101514.25;6105956;23;20444;-87
2021/12/27 05:13:44;;;;;;;8.63;1.77;;;;;;;17.05;100.00;101509.78;6106085;23;20955;-88
2021/12/27 05:16:13;;;;;;;10.70;1.67;;;;;;;17.05;100.00;101516.16;6105555;23;20451;-87
2021/12/27 05:18:41;;;;;;;23.97;2.10;;;;;;;17.02;100.00;101499.16;6129144;23;20436;-87
2021/12/27 05:21:08;;;;;;;13.27;1.83;;;;;;;17.03;100.00;101498.97;6105858;23;20437;-87
2021/12/27 05:23:36;;;;;;;10.50;1.83;;;;;;;17.04;100.00;101506.19;6081987;23;20428;-87
2021/12/27 05:26:03;;;;;;;11.13;2.17;;;;;;;17.01;100.00;101505.75;6104144;23;20528;-87
2021/12/27 05:28:31;;;;;;;11.17;2.07;;;;;;;17.05;100.00;101512.56;6105663;23;20401;-88
2021/12/27 05:30:59;;;;;;;11.20;2.30;;;;;;;17.03;100.00;101522.97;6105902;23;20473;-87
2021/12/27 05:33:28;;;;;;;15.60;1.93;;;;;;;17.03;100.00;101528.50;6105823;23;20404;-87
2021/12/27 05:35:56;;;;;;;12.73;1.70;;;;;;;17.02;100.00;101530.41;6129918;23;20398;-86
2021/12/27 05:38:24;;;;;;;15.87;1.53;;;;;;;17.01;100.00;101531.47;6105222;23;20401;-87
2021/12/27 05:40:54;;;;;;;12.70;1.37;;;;;;;16.96;100.00;101528.50;6105410;23;20412;-87
2021/12/27 05:43:22;;;;;;;12.70;1.80;;;;;;;16.98;100.00;101528.28;6105838;23;20405;-88
2021/12/27 05:45:50;;;;;;;12.20;2.30;;;;;;;16.94;100.00;101525.09;6155134;23;20401;-87
2021/12/27 05:48:18;;;;;;;8.77;2.60;;;;;;;16.91;100.00;101540.22;6106669;23;20422;-87
2021/12/27 05:50:46;;;;;;;6.67;2.03;;;;;;;16.85;100.00;101541.06;6082113;23;20413;-89
2021/12/27 05:53:14;;;;;;;8.70;2.10;;;;;;;16.84;100.00;101541.28;6107287;23;20401;-87
2021/12/27 05:55:42;;;;;;;11.20;3.00;;;;;;;16.77;100.00;101540.44;6131717;23;20780;-87
2021/12/27 05:58:09;;;;;;;12.43;2.30;;;;;;;16.80;100.00;101545.53;6107474;23;20394;-88
2021/12/27 06:00:37;;;;;;;10.83;1.97;;;;;;;16.78;100.00;101550.41;6156991;23;20721;-88
2021/12/27 06:03:05;;;;;;;12.63;1.47;;;;;;;16.79;100.00;101557.63;6107617;23;20406;-87
2021/12/27 06:05:33;;;;;;;14.33;2.80;;;;;;;16.77;100.00;101548.72;6107503;23;20737;-87
2021/12/27 06:08:01;;;;;;;20.70;5.10;;;;;;;16.77;100.00;101557.00;6132407;23;20802;-88
2021/12/27 06:10:28;;;;;;;26.07;6.43;;;;;;;16.77;100.00;101565.28;6083607;23;20731;-87
2021/12/27 06:12:56;;;;;;;17.90;6.60;;;;;;;16.78;100.00;101566.97;6107553;23;20884;-86
2021/12/27 06:15:24;;;;;;;10.77;3.30;;;;;;;16.78;100.00;101565.06;6083185;23;20405;-86
2021/12/27 06:17:52;;;;;;;16.80;4.07;;;;;;;16.76;100.00;101572.72;6107982;23;20400;-87
2021/12/27 06:20:20;;;;;;;13.30;4.50;;;;;;;16.77;100.00;101579.09;6107593;23;20428;-87
2021/12/27 06:22:53;;;;;;;12.07;3.63;;;;;;;16.76;100.00;101582.91;6083226;23;20402;-87
2021/12/27 06:25:21;;;;;;;15.30;3.30;;;;;;;16.78;100.00;101602.88;6131623;23;20849;-87
2021/12/27 06:27:49;;;;;;;11.03;2.70;;;;;;;16.74;100.00;101590.59;6130842;23;20441;-87
2021/12/27 06:30:20;;;;;;;10.97;2.67;;;;;;;16.76;100.00;101597.56;6085407;23;20405;-87
2021/12/27 06:32:48;;;;;;;9.03;2.80;;;;;;;16.75;100.00;101606.91;6107247;23;20803;-87
2021/12/27 06:35:16;;;;;;;12.80;2.93;;;;;;;16.73;100.00;101609.06;6107765;23;20401;-87
2021/12/27 06:37:45;;;;;;;10.67;1.67;;;;;;;16.77;100.00;101617.75;6107929;23;20394;-87
2021/12/27 06:40:13;;;;;;;6.07;1.50;;;;;;;16.77;100.00;101626.03;6106506;23;20402;-87
2021/12/27 06:42:41;;;;;;;9.23;1.13;;;;;;;16.78;100.00;101619.44;6107048;23;20428;-87
2021/12/27 06:45:09;;;;;;;11.27;1.50;;;;;;;16.80;100.00;101628.38;6107449;23;20472;-87
2021/12/27 06:47:37;;;;;;;9.70;1.63;;;;;;;16.80;100.00;101633.88;6083373;23;20441;-87
2021/12/27 06:50:05;;;;;;;7.10;1.60;;;;;;;16.84;100.00;101638.78;6106870;23;20402;-87
2021/12/27 06:52:34;;;;;;;10.63;3.70;;;;;;;16.83;100.00;101638.97;6130711;23;20401;-87
2021/12/27 06:55:01;;;;;;;10.43;1.67;;;;;;;16.84;100.00;101643.44;6083299;23;20409;-87
2021/12/27 06:57:30;;;;;;;11.13;1.77;;;;;;;16.85;100.00;101642.38;6083895;23;20462;-88
2021/12/27 06:59:59;;;;;;;6.70;0.90;;;;;;;16.85;100.00;101642.38;6107456;23;20396;-88
2021/12/27 07:02:27;;;;;;;11.60;1.83;;;;;;;16.86;100.00;101644.94;6107515;23;20393;-88
2021/12/27 07:04:55;;;;;;;8.00;2.03;;;;;;;16.88;100.00;101647.50;6130435;23;20733;-87
2021/12/27 07:07:23;;;;;;;8.00;1.93;;;;;;;16.91;100.00;101658.97;6155926;23;20437;-87
2021/12/27 07:09:51;;;;;;;13.93;2.93;;;;;;;16.84;100.00;101648.97;6106955;23;20774;-87
2021/12/27 07:12:19;;;;;;;6.40;2.00;;;;;;;16.90;100.00;101659.16;6107292;23;20441;-88
2021/12/27 07:14:48;;;;;;;9.03;1.40;;;;;;;16.89;100.00;101654.72;6130944;23;20702;-87
2021/12/27 07:17:16;;;;;;;12.70;2.60;;;;;;;16.94;100.00;101671.47;6107096;23;20405;-87
2021/12/27 07:19:44;;;;;;;15.30;2.93;;;;;;;16.93;100.00;101667.03;6106986;23;20409;-87
2021/12/27 07:22:12;;;;;;;14.90;1.93;;;;;;;16.94;100.00;101663.19;6106312;23;20401;-87
2021/12/27 07:24:40;;;;;;;9.10;1.83;;;;;;;16.98;100.00;101664.47;6125933;23;20457;-86
2021/12/27 07:27:08;;;;;;;19.87;2.43;;;;;;;16.96;100.00;101672.09;6104593;23;20446;-87
2021/12/27 07:29:36;;;;;;;16.73;2.20;;;;;;;17.00;100.00;101672.53;6130095;23;20464;-87
2021/12/27 07:32:06;;;;;;;9.07;1.60;;;;;;;16.95;100.00;101670.41;6130421;23;20405;-86
2021/12/27 07:34:37;;;;;;;7.90;1.90;;;;;;;16.95;100.00;101684.22;6131867;23;20458;-86
2021/12/27 07:37:05;;;;;;;9.80;1.77;;;;;;;16.96;100.00;101688.69;6106490;23;20720;-87
2021/12/27 07:39:34;;;;;;;11.80;1.90;;;;;;;16.98;100.00;101696.75;6106382;23;20394;-87
2021/12/27 07:42:02;;;;;;;13.70;1.83;;;;;;;16.96;100.00;101694.19;6130352;23;20408;-86
2021/12/27 07:44:30;;;;;;;12.23;2.13;;;;;;;16.92;100.00;101682.75;6106224;23;20401;-87
2021/12/27 07:46:57;;;;;;;17.03;2.80;;;;;;;16.95;100.00;101697.16;6106268;23;20441;-87
2021/12/27 07:49:25;;;;;;;14.60;3.30;;;;;;;16.93;100.00;101689.13;6130113;23;20452;-87
2021/12/27 07:51:53;;;;;;;11.53;3.23;;;;;;;16.93;100.00;101694.66;6106303;23;20710;-86
2021/12/27 07:54:23;;;;;;;9.10;2.57;;;;;;;16.96;100.00;101693.34;6107384;23;20394;-87
2021/12/27 07:56:52;;;;;;;14.93;2.60;;;;;;;16.93;100.00;101697.41;6083426;23;20739;-86
2021/12/27 07:59:19;;;;;;;10.30;2.73;;;;;;;16.96;100.00;101699.72;6106370;23;20405;-87
2021/12/27 08:01:47;;;;;;;18.60;3.30;;;;;;;16.95;100.00;101700.78;6106091;23;20408;-87
2021/12/27 08:04:17;;;;;;;14.03;4.37;;;;;;;16.93;100.00;101705.69;6082064;23;20468;-87
2021/12/27 08:06:49;;;;;;;16.57;5.60;;;;;;;16.93;100.00;101703.75;6128971;23;20440;-87
2021/12/27 08:09:18;;;;;;;23.07;6.47;;;;;;;16.92;100.00;101698.47;6106424;23;20397;-87
2021/12/27 08:11:46;;;;;;;18.30;4.63;;;;;;;16.96;100.00;101716.28;6129693;23;20734;-87
2021/12/27 08:14:16;;;;;;;13.03;5.00;;;;;;;16.94;100.00;101721.19;6105151;23;20407;-88
2021/12/27 08:16:44;;;;;;;22.27;5.37;;;;;;;16.96;100.00;101710.78;6130253;23;20812;-87
2021/12/27 08:19:11;;;;;;;11.23;4.63;;;;;;;16.92;100.00;101709.53;6106305;23;20405;-86
2021/12/27 08:21:40;;;;;;;23.60;10.03;;;;;;;16.93;100.00;101716.75;6130871;23;20473;-86
2021/12/27 08:24:08;;;;;;;20.37;10.87;;;;;;;16.96;100.00;101715.44;6129483;23;20429;-87
2021/12/27 08:26:36;;;;;;;27.77;11.70;;;;;;;16.97;100.00;101718.00;6105912;23;20397;-88
2021/12/27 08:29:08;;;;;;;20.07;7.87;;;;;;;17.02;100.00;101726.50;6084675;23;20404;-88
2021/12/27 08:31:36;;;;;;;38.63;12.87;;;;;;;17.05;100.00;101741.81;6106739;23;20421;-87
2021/12/27 08:34:03;;;;;;;24.20;9.70;;;;;;;17.02;100.00;101737.56;6105345;23;20772;-88
2021/12/27 08:36:31;;;;;;;17.57;4.37;;;;;;;17.05;100.00;101750.94;6082786;23;20413;-87
2021/12/27 08:39:00;;;;;;;18.60;5.40;;;;;;;17.01;100.00;101740.53;6106564;23;20745;-89
2021/12/27 08:41:28;;;;;;;16.77;4.90;;;;;;;17.07;100.00;101751.59;6105644;23;20782;-88
2021/12/27 08:44:03;;;;;;;9.93;2.90;;;;;;;17.10;100.00;101761.38;6081977;23;20402;-86
2021/12/27 08:46:32;;;;;;;9.00;3.20;;;;;;;17.13;100.00;101761.75;6106984;23;20472;-87
2021/12/27 08:49:00;;;;;;;21.73;4.50;;;;;;;17.13;100.00;101755.38;6105169;23;20402;-86
2021/12/27 08:51:29;;;;;;;13.57;3.70;;;;;;;17.19;100.00;101760.94;6106009;23;20397;-87
2021/12/27 08:53:56;;;;;;;19.73;3.10;;;;;;;17.22;100.00;101757.75;6081984;23;20405;-87
2021/12/27 08:56:25;;;;;;;8.10;2.27;;;;;;;17.30;100.00;101764.97;6106475;23;20390;-87
2021/12/27 08:58:54;;;;;;;15.43;4.90;;;;;;;17.34;100.00;101763.47;6129768;23;20439;-88
2021/12/27 09:01:22;;;;;;;13.53;2.77;;;;;;;17.34;100.00;101769.00;6129971;23;20459;-89
2021/12/27 09:03:50;;;;;;;13.97;2.43;;;;;;;17.39;100.00;101769.22;6156028;23;20402;-88
2021/12/27 09:06:18;;;;;;;20.07;4.60;;;;;;;17.43;100.00;101769.63;6128894;23;20402;-87
2021/12/27 09:09:08;;;;;;;10.40;1.87;;;;;;;17.49;100.00;101780.69;6081878;23;20437;-88
2021/12/27 09:11:36;;;;;;;10.03;2.00;;;;;;;17.54;100.00;101768.97;6129178;23;20401;-88
2021/12/27 09:14:07;;;;;;;14.90;2.90;;;;;;;17.61;100.00;101789.19;6082348;23;20460;-88
2021/12/27 09:16:43;;;;;;;16.23;2.07;;;;;;;17.63;100.00;101788.97;6130305;23;20901;-88
2021/12/27 09:19:11;;;;;;;21.80;3.13;;;;;;;17.59;100.00;101777.47;6106052;23;20420;-89
2021/12/27 09:21:41;;;;;;;17.40;2.60;;;;;;;17.70;100.00;101795.38;6081692;23;20464;-88
2021/12/27 09:24:14;;;;;;;20.10;3.20;;;;;;;17.76;100.00;101797.25;6131000;23;20425;-88
2021/12/27 09:26:42;;;;;;;21.63;3.20;;;;;;;17.81;100.00;101792.78;6107784;23;20733;-88
2021/12/27 09:29:10;;;;;;;17.87;2.90;;;;;;;17.85;100.00;101799.59;6131215;23;20398;-88
2021/12/27 09:31:38;;;;;;;11.13;3.47;;;;;;;17.87;100.00;101800.22;6108537;23;20880;-88
2021/12/27 09:34:06;;;;;;;13.30;3.53;;;;;;;17.86;100.00;101792.16;6108994;23;20401;-87
2021/12/27 09:36:33;;;;;;;11.97;3.13;;;;;;;17.95;100.00;101799.97;6108955;23;20407;-88
2021/12/27 09:39:01;;;;;;;16.53;3.17;;;;;;;18.06;100.00;101800.41;6133595;23;20401;-89
2021/12/27 09:41:29;;;;;;;7.23;2.10;;;;;;;18.00;100.00;101770.81;6108622;23;20714;-87
2021/12/27 09:43:58;;;;;;;15.47;3.10;;;;;;;18.11;100.00;101795.03;6133376;23;20401;-88
2021/12/27 09:46:26;;;;;;;13.30;3.87;;;;;;;18.12;100.00;101793.97;6084757;23;20408;-86
2021/12/27 09:48:56;;;;;;;15.03;1.53;;;;;;;18.13;100.00;101801.22;6133441;23;20425;-87
2021/12/27 09:51:23;;;;;;;6.70;1.63;;;;;;;18.14;100.00;101811.22;6109782;23;20381;-88
2021/12/27 09:53:53;;;;;;;6.10;1.47;;;;;;;18.27;100.00;101816.72;6109707;23;20374;-88
2021/12/27 09:56:20;;;;;;;18.70;1.80;;;;;;;18.39;100.00;101826.03;6108651;23;20450;-88
2021/12/27 09:58:48;;;;;;;17.50;2.03;;;;;;;18.53;100.00;101818.50;6109111;23;20484;-88
2021/12/27 10:01:16;;;;;;;11.50;3.17;;;;;;;18.61;100.00;101833.00;6132487;23;20407;-88
2021/12/27 10:03:50;;;;;;;10.73;2.57;;;;;;;18.55;100.00;101822.75;6109858;23;20424;-88
2021/12/27 10:06:19;;;;;;;6.70;1.70;;;;;;;18.57;100.00;101840.00;6084935;23;20401;-88
2021/12/27 10:08:49;;;;;;;8.80;3.27;;;;;;;18.60;100.00;101850.69;6108883;23;20955;-87
2021/12/27 10:11:18;;;;;;;7.30;3.00;;;;;;;18.61;100.00;101848.75;6109749;23;20369;-87
2021/12/27 10:13:58;;;;;;;12.17;2.10;;;;;;;18.65;100.00;101863.03;6108450;23;20401;-87
2021/12/27 10:16:27;;;;;;;5.80;1.70;;;;;;;18.67;100.00;101858.94;6133327;23;20389;-86
2021/12/27 10:18:57;;;;;;;10.47;2.00;;;;;;;18.71;100.00;101859.34;6109353;23;20393;-87
2021/12/27 10:21:25;;;;;;;6.03;1.60;;;;;;;18.67;100.00;101849.78;6109385;23;20433;-87
2021/12/27 10:24:13;;;;;;;9.97;1.50;;;;;;;18.76;100.00;101865.09;6118323;23;20927;-87
2021/12/27 10:26:46;;;;;;;7.53;1.63;;;;;;;18.78;100.00;101869.34;6130582;23;20964;-88
2021/12/27 10:29:19;;;;;;;7.47;1.30;;;;;;;18.80;100.00;101863.59;6109808;23;20944;-87
2021/12/27 10:31:55;;;;;;;23.50;2.23;;;;;;;18.83;100.00;101877.84;6133157;23;20499;-86
2021/12/27 10:34:26;;;;;;;13.20;1.70;;;;;;;18.86;100.00;101880.16;6132273;23;20400;-87
2021/12/27 10:37:25;;;;;;;12.87;3.33;;;;;;;18.90;100.00;101875.88;6132167;23;20857;-86
2021/12/27 10:39:57;;;;;;;16.73;4.13;;;;;;;18.91;100.00;101868.41;6156108;23;20405;-88
2021/12/27 10:43:05;;;;;;;15.97;4.03;;;;;;;18.83;100.00;101864.00;6131126;23;20768;-89
2021/12/27 10:45:33;;;;;;;10.90;2.63;;;;;;;18.85;100.00;101866.56;6137744;23;20408;-88
2021/12/27 10:48:03;;;;;;;10.83;2.33;;;;;;;18.86;100.00;101863.53;6083458;23;20948;-88
2021/12/27 10:50:31;;;;;;;12.73;1.80;;;;;;;19.00;100.00;101880.09;6130049;23;20833;-88
2021/12/27 10:53:01;;;;;;;13.13;2.20;;;;;;;18.98;100.00;101872.84;6107933;23;20401;-88
2021/12/27 10:55:38;;;;;;;10.40;2.80;;;;;;;19.08;100.00;101880.69;6083317;23;20425;-88
2021/12/27 10:58:10;;;;;;;14.00;3.10;;;;;;;19.09;100.00;101889.84;6107439;23;20399;-87
2021/12/27 11:00:38;;;;;;;19.57;6.67;;;;;;;19.05;100.00;101894.97;6131147;23;20405;-88
2021/12/27 11:03:06;;;;;;;8.50;2.37;;;;;;;19.01;100.00;101893.75;6107041;23;20398;-89
2021/12/27 11:05:44;;;;;;;9.23;1.37;;;;;;;18.99;100.00;101879.25;6107666;23;20393;-88
2021/12/27 11:08:12;;;;;;;25.13;8.50;;;;;;;18.99;100.00;101884.78;6106771;23;20468;-87
2021/12/27 11:10:39;;;;;;;9.10;2.60;;;;;;;18.95;100.00;101878.00;6130817;23;20394;-88
2021/12/27 11:13:09;;;;;;;13.50;2.80;;;;;;;18.95;100.00;101873.31;6108562;23;20690;-88
2021/12/27 11:15:37;;;;;;;9.73;2.57;;;;;;;18.95;100.00;101872.44;6108327;23;20402;-88
2021/12/27 11:18:05;;;;;;;12.53;2.00;;;;;;;19.10;100.00;101884.06;6130759;23;20404;-87
2021/12/27 11:20:33;;;;;;;7.17;2.10;;;;;;;19.26;100.00;101880.78;6130708;23;20924;-87
2021/12/27 11:23:02;;;;;;;8.90;2.73;;;;;;;19.33;100.00;101866.88;6106859;23;20425;-87
2021/12/27 11:25:33;;;;;;;7.10;2.33;;;;;;;19.47;100.00;101876.78;6131186;23;20390;-87
2021/12/27 11:28:01;;;;;;;8.10;1.73;;;;;;;19.49;100.00;101868.25;6106453;23;20935;-87
2021/12/27 11:30:32;;;;;;;10.03;2.17;;;;;;;19.50;100.00;101865.28;6107559;23;20476;-86
2021/12/27 11:33:16;;;;;;;10.77;2.70;;;;;;;19.62;100.00;101870.97;6131441;23;20922;-88
2021/12/27 11:35:57;;;;;;;15.90;2.93;;;;;;;19.83;100.00;101864.97;6130113;23;20471;-87
2021/12/27 11:38:30;;;;;;;15.53;4.57;;;;;;;19.98;100.00;101861.88;6156389;23;20393;-87
2021/12/27 11:40:59;;;;;;;14.00;2.67;;;;;;;20.09;100.00;101863.03;6130039;23;20410;-87